Time;durP1;ratioP1;P1;durP2;ratioP2;P2;SDS_P1;SDS_P2;PMS_P1;PMS_P2;Temp;Humidity;BMP_temperature;BMP_pressure;BME280_temperature;BME280_humidity;BME280_pressure;Samples;Min_cycle;Max_cycle;Signal;HPM_P1;HPM_P2
2021/09/25 00:00:16;;;;;;;5.03;4.12;;;;;;;13.59;86.57;98697.91;1801014;78;20984;-68
2021/09/25 00:02:45;;;;;;;5.83;3.75;;;;;;;13.60;86.55;98691.70;1813816;78;21344;-68
2021/09/25 00:05:11;;;;;;;6.05;3.87;;;;;;;13.61;86.75;98688.14;1761679;79;21155;-68
2021/09/25 00:07:38;;;;;;;4.58;3.42;;;;;;;13.61;86.62;98688.14;1761540;80;21128;-68
2021/09/25 00:10:06;;;;;;;5.77;3.63;;;;;;;13.59;86.74;98674.30;1753013;81;21008;-68
2021/09/25 00:12:32;;;;;;;4.05;3.08;;;;;;;13.58;86.74;98682.27;1767610;80;21101;-68
2021/09/25 00:14:59;;;;;;;4.22;3.33;;;;;;;13.57;86.91;98685.38;1750208;81;21013;-68
2021/09/25 00:17:26;;;;;;;4.47;3.40;;;;;;;13.57;86.97;98686.69;1785254;79;21117;-68
2021/09/25 00:19:53;;;;;;;2.95;2.70;;;;;;;13.58;87.04;98676.58;1772724;79;20974;-68
2021/09/25 00:22:19;;;;;;;2.70;2.50;;;;;;;13.57;87.15;98670.95;1769362;79;20962;-68
2021/09/25 00:24:46;;;;;;;2.67;2.30;;;;;;;13.56;87.19;98685.03;1781387;79;21590;-69
2021/09/25 00:27:13;;;;;;;3.22;2.52;;;;;;;13.55;87.21;98683.34;1787292;79;20985;-68
2021/09/25 00:29:39;;;;;;;3.73;2.60;;;;;;;13.55;87.25;98680.72;1780773;79;22213;-68
2021/09/25 00:32:07;;;;;;;3.83;2.05;;;;;;;13.56;87.39;98681.58;1778216;79;21096;-68
2021/09/25 00:34:34;;;;;;;6.00;2.75;;;;;;;13.57;87.53;98672.75;1779391;79;20998;-68
2021/09/25 00:37:01;;;;;;;2.55;2.12;;;;;;;13.57;87.52;98677.52;1734724;81;28198;-68
2021/09/25 00:39:27;;;;;;;2.97;2.10;;;;;;;13.58;87.61;98681.83;1747251;79;21041;-68
2021/09/25 00:41:54;;;;;;;4.80;2.50;;;;;;;13.59;87.74;98674.30;1738070;81;22405;-68
2021/09/25 00:44:21;;;;;;;2.87;2.27;;;;;;;13.59;87.78;98679.55;1729879;81;21267;-68
2021/09/25 00:46:48;;;;;;;3.77;2.27;;;;;;;13.61;87.83;98673.72;1755770;79;20952;-68
2021/09/25 00:49:20;;;;;;;4.20;2.30;;;;;;;13.62;87.89;98681.94;1744118;81;20943;-69
2021/09/25 00:51:48;;;;;;;3.47;1.90;;;;;;;13.62;87.84;98679.31;1761937;79;21058;-68
2021/09/25 00:54:16;;;;;;;1.87;1.65;;;;;;;13.63;87.98;98683.59;1734878;81;21037;-68
2021/09/25 00:56:45;;;;;;;2.92;1.90;;;;;;;13.66;88.03;98670.25;1755099;79;21648;-68
2021/09/25 00:59:13;;;;;;;2.17;1.62;;;;;;;13.66;88.00;98674.18;1760643;79;21664;-68
2021/09/25 01:01:41;;;;;;;2.55;1.80;;;;;;;13.67;88.18;98686.84;1770670;79;21468;-68
2021/09/25 01:04:08;;;;;;;6.78;2.42;;;;;;;13.68;88.18;98675.87;1757916;80;21004;-68
2021/09/25 01:06:35;;;;;;;;;;;;;;;13.66;88.17;98678.11;1734431;81;21110;-68
2021/09/25 01:09:03;;;;;;;1.40;1.30;;;;;;;13.68;88.36;98682.42;1759780;80;20198;-68
2021/09/25 01:11:31;;;;;;;2.55;1.10;;;;;;;13.65;88.40;98673.83;1763598;80;21006;-68
2021/09/25 01:13:59;;;;;;;1.90;1.32;;;;;;;13.57;88.73;98670.95;1729794;81;20991;-68
2021/09/25 01:16:25;;;;;;;1.85;1.20;;;;;;;13.57;88.73;98670.95;1732268;81;21057;-68
2021/09/25 01:18:52;;;;;;;1.67;1.32;;;;;;;13.69;88.56;98679.67;1733669;81;21417;-68
2021/09/25 01:21:20;;;;;;;2.22;1.27;;;;;;;13.70;88.67;98677.91;1761938;79;20973;-68
2021/09/25 01:23:51;;;;;;;;;;;;;;;13.70;88.63;98677.91;1773541;79;20915;-69
2021/09/25 01:26:20;;;;;;;1.82;1.40;;;;;;;13.58;88.83;98665.23;1757201;79;20099;-68
2021/09/25 01:28:48;;;;;;;1.77;1.40;;;;;;;13.58;88.83;98665.23;1761539;79;21040;-69
2021/09/25 01:31:16;;;;;;;1.60;1.25;;;;;;;13.69;88.91;98678.84;1765814;80;21144;-68
2021/09/25 01:33:47;;;;;;;1.87;1.40;;;;;;;13.66;89.11;98685.98;1756563;81;20956;-68
2021/09/25 01:36:15;;;;;;;1.30;1.20;;;;;;;13.66;89.42;98678.11;1761785;80;21564;-68
2021/09/25 01:38:44;;;;;;;1.70;1.30;;;;;;;13.66;89.42;98678.11;1764501;80;20964;-68
2021/09/25 01:41:14;;;;;;;1.85;1.47;;;;;;;13.69;89.48;98684.09;1770782;79;21227;-69
2021/09/25 01:43:41;;;;;;;1.85;1.75;;;;;;;13.69;89.48;98684.09;1766838;79;21886;-68
2021/09/25 01:46:07;;;;;;;1.92;1.82;;;;;;;13.69;89.40;98681.46;1770871;79;21508;-69
2021/09/25 01:48:34;;;;;;;2.33;1.85;;;;;;;13.70;89.53;98671.34;1763242;79;21071;-68
2021/09/25 01:51:00;;;;;;;2.23;1.90;;;;;;;13.70;89.51;98679.22;1767223;79;21488;-68
2021/09/25 01:53:29;;;;;;;1.98;1.75;;;;;;;13.72;89.62;98674.19;1758738;79;20977;-69
2021/09/25 01:55:55;;;;;;;2.20;2.00;;;;;;;13.73;89.72;98680.30;1772252;79;21071;-68
2021/09/25 01:58:22;;;;;;;2.00;1.80;;;;;;;13.73;89.72;98667.17;1773032;79;20966;-69
2021/09/25 02:00:49;;;;;;;2.03;1.90;;;;;;;13.74;89.71;98671.45;1763760;79;21108;-68
2021/09/25 02:03:16;;;;;;;2.75;1.90;;;;;;;13.76;89.82;98674.80;1765681;79;20942;-69
2021/09/25 02:05:42;;;;;;;2.35;1.77;;;;;;;13.75;90.11;98680.98;1766456;79;21487;-68
2021/09/25 02:08:09;;;;;;;2.00;1.80;;;;;;;13.75;90.11;98680.98;1758818;79;21078;-68
2021/09/25 02:10:36;;;;;;;1.93;1.77;;;;;;;13.75;90.08;98667.87;1762842;79;21046;-69
2021/09/25 02:13:02;;;;;;;4.45;1.70;;;;;;;13.75;90.14;98675.29;1765142;80;20903;-69
2021/09/25 02:15:32;;;;;;;2.22;1.60;;;;;;;13.77;90.52;98686.96;1767206;79;20999;-69
2021/09/25 02:17:58;;;;;;;2.17;1.60;;;;;;;13.77;90.63;98689.58;1768404;79;21272;-68
2021/09/25 02:20:25;;;;;;;1.70;1.55;;;;;;;13.77;90.63;98689.58;1734353;81;21399;-68
2021/09/25 02:22:51;;;;;;;2.53;2.10;;;;;;;13.79;90.82;98696.87;1733126;81;21003;-68
2021/09/25 02:25:18;;;;;;;1.97;1.77;;;;;;;13.79;90.63;98687.69;1757587;79;21614;-69
2021/09/25 02:27:49;;;;;;;3.35;2.25;;;;;;;13.79;90.83;98700.80;1762537;80;20961;-68
2021/09/25 02:30:17;;;;;;;2.05;1.85;;;;;;;13.80;90.93;98698.53;1763571;81;21041;-69
2021/09/25 02:32:45;;;;;;;2.05;1.90;;;;;;;13.82;90.65;98693.52;1730060;81;21091;-68
2021/09/25 02:35:16;;;;;;;2.40;1.92;;;;;;;13.85;90.91;98697.70;1767267;79;20993;-69
2021/09/25 02:37:43;;;;;;;2.65;2.12;;;;;;;13.84;91.03;98701.29;1766058;79;21460;-68
2021/09/25 02:40:11;;;;;;;3.12;2.25;;;;;;;13.84;91.03;98701.29;1764984;79;21075;-69
2021/09/25 02:42:39;;;;;;;2.98;2.52;;;;;;;13.85;90.96;98710.82;1770812;79;21547;-69
2021/09/25 02:45:08;;;;;;;5.33;2.90;;;;;;;13.84;91.14;98710.47;1764463;79;22777;-68
2021/09/25 02:47:35;;;;;;;4.35;3.33;;;;;;;13.84;91.12;98717.03;1768405;79;21452;-68
2021/09/25 02:50:01;;;;;;;3.52;2.75;;;;;;;13.86;91.08;98708.09;1766827;79;21010;-68
2021/09/25 02:52:28;;;;;;;5.00;2.83;;;;;;;13.87;91.15;98720.73;1769045;79;21492;-69
2021/09/25 02:54:54;;;;;;;3.27;2.83;;;;;;;13.87;91.14;98720.73;1768563;79;21476;-68
2021/09/25 02:57:21;;;;;;;3.43;2.87;;;;;;;13.88;91.17;98722.39;1772802;79;21518;-69
2021/09/25 02:59:48;;;;;;;5.20;3.15;;;;;;;13.88;91.50;98715.83;1768847;80;21686;-68
2021/09/25 03:02:15;;;;;;;3.20;2.90;;;;;;;13.88;91.50;98715.83;1771174;79;21013;-68
2021/09/25 03:04:41;;;;;;;3.30;2.83;;;;;;;13.85;91.58;98723.94;1770179;79;21023;-68
2021/09/25 03:07:08;;;;;;;2.73;2.23;;;;;;;13.84;91.43;98731.47;1771617;79;21484;-68
2021/09/25 03:09:35;;;;;;;3.47;2.70;;;;;;;13.84;91.75;98728.36;1772007;79;21075;-69
2021/09/25 03:12:03;;;;;;;3.60;2.60;;;;;;;13.82;91.59;98733.36;1761037;79;20950;-68
2021/09/25 03:14:30;;;;;;;4.00;2.80;;;;;;;13.80;91.58;98744.44;1762333;78;21003;-68
2021/09/25 03:16:57;;;;;;;3.73;2.90;;;;;;;13.80;91.70;98730.01;1768837;79;21028;-68
2021/09/25 03:19:23;;;;;;;3.05;2.12;;;;;;;13.79;91.76;98736.22;1783318;79;21012;-69
2021/09/25 03:21:50;;;;;;;6.80;2.97;;;;;;;13.79;91.77;98733.11;1761125;79;21245;-69
2021/09/25 03:24:17;;;;;;;4.08;2.70;;;;;;;13.78;91.68;98730.59;1778574;79;20961;-69
2021/09/25 03:26:43;;;;;;;5.10;2.65;;;;;;;13.77;91.63;98732.87;1778337;79;21539;-68
2021/09/25 03:29:10;;;;;;;3.07;2.60;;;;;;;13.78;91.69;98743.71;1747553;81;20918;-69
2021/09/25 03:31:37;;;;;;;3.90;2.37;;;;;;;13.77;91.69;98734.19;1776175;79;21012;-69
2021/09/25 03:34:03;;;;;;;4.73;2.53;;;;;;;13.74;91.73;98743.12;1782896;79;21865;-68
2021/09/25 03:36:30;;;;;;;5.03;2.60;;;;;;;13.74;91.85;98743.60;1744917;80;20920;-68
2021/09/25 03:38:57;;;;;;;3.27;2.13;;;;;;;13.75;91.85;98742.64;1732277;81;20993;-68
2021/09/25 03:41:23;;;;;;;2.70;1.97;;;;;;;13.74;91.83;98752.30;1734349;80;20942;-69
2021/09/25 03:43:50;;;;;;;4.50;2.30;;;;;;;13.74;91.85;98741.80;1755711;80;20978;-68
2021/09/25 03:46:19;;;;;;;3.87;2.30;;;;;;;13.73;91.85;98738.84;1757488;80;21132;-69
2021/09/25 03:48:46;;;;;;;3.62;2.33;;;;;;;13.74;91.88;98742.29;1755235;79;21566;-68
2021/09/25 03:51:13;;;;;;;6.37;2.37;;;;;;;13.74;91.98;98732.62;1756205;80;21025;-68
2021/09/25 03:53:40;;;;;;;3.80;2.10;;;;;;;13.74;91.93;98728.69;1755599;80;20954;-68
2021/09/25 03:56:09;;;;;;;3.98;2.25;;;;;;;13.74;91.88;98731.80;1760898;81;20967;-68
2021/09/25 03:58:37;;;;;;;4.75;2.55;;;;;;;13.73;91.94;98739.31;1764783;79;21916;-69
2021/09/25 04:01:06;;;;;;;3.55;2.10;;;;;;;13.73;91.97;98743.25;1764241;79;21143;-68
2021/09/25 04:03:32;;;;;;;3.92;1.90;;;;;;;13.72;92.00;98736.31;1754093;79;20914;-68
2021/09/25 04:06:01;;;;;;;3.17;2.10;;;;;;;13.71;92.06;98748.59;1754049;79;20951;-68
2021/09/25 04:08:32;;;;;;;3.55;2.10;;;;;;;13.71;92.08;98751.22;1742327;81;21132;-68
2021/09/25 04:10:59;;;;;;;3.62;2.30;;;;;;;13.72;92.12;98757.30;1763994;79;23468;-68
2021/09/25 04:13:26;;;;;;;3.95;2.17;;;;;;;13.72;92.07;98758.13;1757606;79;21023;-68
2021/09/25 04:15:52;;;;;;;5.60;2.67;;;;;;;13.73;92.08;98755.89;1759680;79;21067;-69
2021/09/25 04:18:19;;;;;;;2.75;1.75;;;;;;;13.74;92.04;98767.20;1759165;80;20982;-69
2021/09/25 04:20:46;;;;;;;4.03;2.08;;;;;;;13.72;92.09;98766.48;1743339;81;21067;-69
2021/09/25 04:23:12;;;;;;;4.43;2.17;;;;;;;13.71;92.08;98760.89;1773697;79;21088;-69
2021/09/25 04:25:39;;;;;;;4.57;2.13;;;;;;;13.71;92.15;98760.89;1758767;79;21019;-69
2021/09/25 04:28:09;;;;;;;3.40;1.92;;;;;;;13.73;92.15;98768.17;1733794;81;21099;-68
2021/09/25 04:30:39;;;;;;;3.50;2.10;;;;;;;13.73;92.13;98761.61;1757680;79;21542;-68
2021/09/25 04:33:10;;;;;;;7.53;1.90;;;;;;;13.72;92.13;98759.92;1751353;79;21040;-68
2021/09/25 04:35:39;;;;;;;3.87;2.10;;;;;;;13.73;92.15;98769.48;1768589;79;21105;-68
2021/09/25 04:38:06;;;;;;;4.03;1.82;;;;;;;13.73;92.06;98767.69;1761803;80;21052;-68
2021/09/25 04:40:33;;;;;;;3.15;2.17;;;;;;;13.75;92.22;98770.18;1761250;79;21001;-69
2021/09/25 04:43:02;;;;;;;3.58;1.40;;;;;;;13.76;92.16;98767.94;1764831;79;21026;-68
2021/09/25 04:45:29;;;;;;;10.78;2.92;;;;;;;13.77;92.20;98778.78;1764599;79;21609;-68
2021/09/25 04:47:56;;;;;;;3.87;1.92;;;;;;;13.77;92.23;98781.41;1767034;79;21457;-69
2021/09/25 04:50:28;;;;;;;4.28;1.82;;;;;;;13.78;92.31;98776.50;1769118;79;20917;-68
2021/09/25 04:52:51;;;;;;;3.42;1.55;;;;;;;13.78;92.54;98788.31;1761308;80;20976;-69
2021/09/25 04:55:18;;;;;;;3.83;1.70;;;;;;;13.78;92.54;98788.31;1763916;79;20990;-68
2021/09/25 04:57:45;;;;;;;3.27;1.57;;;;;;;13.81;92.34;98786.80;1764848;79;20992;-68
2021/09/25 05:00:12;;;;;;;2.47;1.73;;;;;;;13.82;92.42;98776.17;1763554;79;22237;-68
2021/09/25 05:02:39;;;;;;;6.62;2.33;;;;;;;13.83;92.40;98784.88;1768429;79;21237;-68
2021/09/25 05:05:08;;;;;;;3.67;1.80;;;;;;;13.83;92.37;98783.08;1766719;80;21101;-68
2021/09/25 05:07:36;;;;;;;5.45;2.05;;;;;;;13.85;92.38;98792.16;1765407;79;20908;-69
2021/09/25 05:10:03;;;;;;;5.95;2.37;;;;;;;13.85;92.41;98789.53;1742408;81;20986;-68
2021/09/25 05:12:30;;;;;;;4.00;2.02;;;;;;;13.87;92.42;98788.95;1726944;81;21172;-68
2021/09/25 05:14:57;;;;;;;5.05;2.33;;;;;;;13.90;92.49;98799.70;1737247;81;21497;-69
2021/09/25 05:17:23;;;;;;;2.63;1.57;;;;;;;13.90;92.49;98797.07;1731378;81;21002;-68
2021/09/25 05:19:50;;;;;;;2.27;1.53;;;;;;;13.89;92.48;98814.58;1764878;79;20981;-69
2021/09/25 05:22:18;;;;;;;4.93;1.73;;;;;;;13.88;92.46;98815.55;1766886;79;21052;-68
2021/09/25 05:24:45;;;;;;;5.97;1.90;;;;;;;13.90;92.53;98814.95;1762519;79;22324;-69
2021/09/25 05:27:12;;;;;;;4.65;1.95;;;;;;;13.89;92.52;98817.20;1741461;81;20973;-68
2021/09/25 05:29:40;;;;;;;7.50;2.17;;;;;;;13.89;92.53;98810.64;1740186;81;21095;-68
2021/09/25 05:32:08;;;;;;;4.12;1.80;;;;;;;13.94;92.57;98816.87;1740494;81;21082;-68
2021/09/25 05:34:34;;;;;;;3.25;1.72;;;;;;;13.97;92.66;98814.01;1757685;79;21102;-68
2021/09/25 05:37:01;;;;;;;5.25;1.70;;;;;;;13.98;92.59;98815.22;1767044;79;21479;-69
2021/09/25 05:39:28;;;;;;;4.50;1.70;;;;;;;13.98;92.59;98824.41;1777756;79;21028;-69
2021/09/25 05:41:54;;;;;;;5.90;1.70;;;;;;;14.01;92.56;98822.86;1777068;78;20995;-68
2021/09/25 05:44:21;;;;;;;5.23;1.90;;;;;;;14.04;92.55;98827.05;1786673;79;21574;-69
2021/09/25 05:46:48;;;;;;;3.67;1.90;;;;;;;14.05;92.52;98827.39;1782883;78;21072;-68
2021/09/25 05:49:14;;;;;;;5.55;2.15;;;;;;;14.05;92.54;98817.72;1782857;79;22307;-69
2021/09/25 05:51:41;;;;;;;4.23;1.70;;;;;;;14.04;92.53;98826.56;1788152;79;21112;-68
2021/09/25 05:54:07;;;;;;;4.30;1.70;;;;;;;14.05;92.49;98825.59;1775614;79;21062;-68
2021/09/25 05:56:34;;;;;;;3.72;1.50;;;;;;;14.05;92.55;98830.84;1776577;79;21069;-69
2021/09/25 05:59:01;;;;;;;3.72;1.62;;;;;;;14.05;92.57;98830.84;1763584;79;21008;-68
2021/09/25 06:01:28;;;;;;;2.92;1.40;;;;;;;14.04;92.53;98837.54;1774145;78;21061;-69
2021/09/25 06:03:55;;;;;;;3.55;1.50;;;;;;;14.02;92.67;98833.70;1750402;79;20991;-68
2021/09/25 06:06:21;;;;;;;4.80;2.07;;;;;;;14.02;92.64;98831.08;1766097;80;20970;-69
2021/09/25 06:08:48;;;;;;;4.00;1.93;;;;;;;14.01;92.67;98839.92;1765480;80;20964;-69
2021/09/25 06:11:14;;;;;;;4.03;1.70;;;;;;;14.00;92.72;98840.88;1761262;79;22115;-69
2021/09/25 06:13:41;;;;;;;4.45;1.82;;;;;;;14.00;92.69;98838.26;1763366;79;21419;-69
2021/09/25 06:16:08;;;;;;;6.30;2.30;;;;;;;14.00;92.74;98846.13;1767841;79;20951;-69
2021/09/25 06:18:34;;;;;;;2.45;1.60;;;;;;;13.99;92.83;98845.75;1746779;81;20999;-69
2021/09/25 06:21:01;;;;;;;1.67;1.20;;;;;;;14.00;92.82;98847.44;1759564;79;20994;-69
2021/09/25 06:23:27;;;;;;;3.67;1.67;;;;;;;14.02;93.24;98850.77;1779512;79;20990;-69
2021/09/25 06:25:54;;;;;;;3.97;1.80;;;;;;;14.01;92.84;98847.80;1753305;80;21426;-69
2021/09/25 06:28:21;;;;;;;3.70;1.60;;;;;;;14.01;92.81;98858.29;1749009;81;21079;-69
2021/09/25 06:30:47;;;;;;;3.45;1.37;;;;;;;14.01;92.90;98847.80;1749119;81;20954;-69
2021/09/25 06:33:14;;;;;;;6.50;2.27;;;;;;;14.02;92.87;98856.02;1773040;79;20993;-69
2021/09/25 06:35:41;;;;;;;4.43;1.63;;;;;;;14.04;92.87;98856.74;1783417;79;21085;-69
2021/09/25 06:38:07;;;;;;;7.53;1.80;;;;;;;14.06;92.81;98869.28;1725447;81;21414;-69
2021/09/25 06:40:34;;;;;;;4.10;1.62;;;;;;;14.04;92.78;98865.93;1737084;81;21000;-68
2021/09/25 06:43:03;;;;;;;3.45;1.50;;;;;;;14.07;92.82;98864.87;1760979;80;21136;-69
2021/09/25 06:45:32;;;;;;;3.92;1.47;;;;;;;14.09;92.79;98876.09;1760709;80;21012;-69
2021/09/25 06:47:58;;;;;;;3.12;1.70;;;;;;;14.09;92.69;98868.22;1762983;79;21065;-69
2021/09/25 06:50:26;;;;;;;3.00;1.60;;;;;;;14.12;92.62;98889.47;1737816;81;21105;-69
2021/09/25 06:52:54;;;;;;;3.50;1.65;;;;;;;14.12;92.62;98889.47;1769092;80;21001;-69
2021/09/25 06:55:21;;;;;;;4.72;2.33;;;;;;;14.15;92.78;98880.87;1765693;79;20969;-69
2021/09/25 06:57:47;;;;;;;4.27;2.07;;;;;;;14.10;92.75;98870.71;1732326;81;20994;-69
2021/09/25 07:00:15;;;;;;;2.40;1.65;;;;;;;14.20;92.63;98898.89;1753856;79;21180;-71
2021/09/25 07:02:42;;;;;;;3.30;1.52;;;;;;;14.21;92.65;98899.27;1752462;81;21765;-69
2021/09/25 07:05:11;;;;;;;5.00;1.90;;;;;;;14.24;92.70;98897.72;1755829;80;20995;-69
2021/09/25 07:07:40;;;;;;;3.33;1.60;;;;;;;14.31;92.77;98901.54;1738371;81;21239;-69
2021/09/25 07:10:11;;;;;;;3.17;1.98;;;;;;;14.39;92.77;98907.53;1748211;80;20997;-69
2021/09/25 07:12:38;;;;;;;5.65;1.98;;;;;;;14.49;92.76;98902.78;1757634;80;22036;-68
2021/09/25 07:15:05;;;;;;;5.30;2.17;;;;;;;14.60;92.45;98909.05;1767363;80;21290;-71
2021/09/25 07:17:32;;;;;;;6.95;1.82;;;;;;;14.71;92.57;98914.31;1774823;80;21053;-70
2021/09/25 07:19:59;;;;;;;2.42;1.40;;;;;;;14.88;92.60;98915.15;1731091;81;21027;-69
2021/09/25 07:22:26;;;;;;;5.72;2.47;;;;;;;15.09;92.63;98912.62;1734863;81;20981;-70
2021/09/25 07:24:54;;;;;;;6.05;2.05;;;;;;;15.19;91.53;98911.42;1733038;81;21608;-70
2021/09/25 07:27:22;;;;;;;4.30;1.72;;;;;;;15.27;91.64;98921.34;1766639;79;21611;-70
2021/09/25 07:29:49;;;;;;;5.20;2.27;;;;;;;15.35;91.69;98925.04;1737005;81;21031;-70
2021/09/25 07:32:18;;;;;;;4.47;1.92;;;;;;;15.37;91.20;98933.62;1765318;80;21503;-70
2021/09/25 07:34:46;;;;;;;3.12;1.57;;;;;;;15.42;91.48;98923.57;1736592;81;20990;-69
2021/09/25 07:37:13;;;;;;;3.95;1.90;;;;;;;15.54;91.53;98930.12;1756004;79;21013;-71
2021/09/25 07:39:41;;;;;;;5.55;1.82;;;;;;;15.70;91.70;98923.19;1774065;79;21454;-69
2021/09/25 07:42:08;;;;;;;5.40;1.90;;;;;;;15.89;91.35;98938.67;1774897;79;21626;-69
2021/09/25 07:44:35;;;;;;;4.17;1.75;;;;;;;15.95;90.76;98939.14;1766148;79;21527;-70
2021/09/25 07:47:22;;;;;;;3.02;1.62;;;;;;;15.95;90.41;98941.77;1780672;79;20966;-73
2021/09/25 07:49:51;;;;;;;7.17;1.70;;;;;;;15.93;89.37;98948.95;1744406;81;21063;-71
2021/09/25 07:52:19;;;;;;;7.67;2.35;;;;;;;16.08;89.62;98938.00;1762410;79;21086;-70
2021/09/25 07:54:46;;;;;;;5.33;2.65;;;;;;;16.05;89.33;98944.02;1760468;79;21039;-71
2021/09/25 07:57:13;;;;;;;;;;;;;;;16.06;89.42;98949.63;1762470;79;20962;-71
2021/09/25 07:59:40;;;;;;;4.12;1.55;;;;;;;16.14;89.15;98943.24;1728642;81;20119;-70
2021/09/25 08:02:07;;;;;;;5.57;1.83;;;;;;;16.19;89.33;98946.80;1762417;79;21022;-70
2021/09/25 08:04:33;;;;;;;8.43;2.52;;;;;;;16.30;89.63;98959.45;1762500;79;21938;-71
2021/09/25 08:07:00;;;;;;;4.00;1.47;;;;;;;16.42;88.92;98954.13;1737890;81;20958;-70
2021/09/25 08:09:27;;;;;;;6.83;2.95;;;;;;;16.56;88.92;98966.98;1738263;81;20921;-70
2021/09/25 08:11:54;;;;;;;5.35;2.00;;;;;;;16.59;87.99;98965.40;1763148;79;20973;-70
2021/09/25 08:14:20;;;;;;;5.28;1.90;;;;;;;16.73;88.67;98966.38;1762676;80;22155;-71
2021/09/25 08:16:47;;;;;;;4.80;2.20;;;;;;;16.89;87.79;98968.59;1767945;80;21015;-71
2021/09/25 08:19:14;;;;;;;5.30;1.93;;;;;;;16.92;87.71;98964.86;1763147;79;21722;-71
2021/09/25 08:21:40;;;;;;;5.10;2.00;;;;;;;16.98;87.46;98965.65;1764981;80;21163;-72
2021/09/25 08:24:07;;;;;;;3.87;1.70;;;;;;;17.15;87.24;98976.89;1764552;80;21595;-71
2021/09/25 08:26:34;;;;;;;6.62;1.95;;;;;;;17.25;86.96;98973.45;1763672;79;21643;-73
2021/09/25 08:29:00;;;;;;;9.83;2.13;;;;;;;17.12;86.32;98974.52;1766226;79;21079;-72
2021/09/25 08:31:27;;;;;;;4.50;1.67;;;;;;;17.06;85.98;98977.70;1767597;79;21274;-71
2021/09/25 08:33:54;;;;;;;;;;;;;;;17.06;86.39;98971.10;1765442;79;21009;-69
2021/09/25 08:36:21;;;;;;;6.33;2.03;;;;;;;17.05;84.37;98973.37;1763217;80;20606;-70
2021/09/25 08:38:48;;;;;;;9.68;2.10;;;;;;;17.08;85.72;98980.19;1763489;80;21352;-69
2021/09/25 08:41:15;;;;;;;4.25;1.87;;;;;;;17.21;85.95;98980.80;1739543;80;21258;-70
2021/09/25 08:43:42;;;;;;;3.52;1.75;;;;;;;17.20;85.36;98983.93;1769615;80;20949;-70
2021/09/25 08:46:09;;;;;;;5.28;1.65;;;;;;;17.26;85.62;98990.97;1767243;79;21506;-70
2021/09/25 08:48:38;;;;;;;5.90;1.55;;;;;;;17.37;84.37;98979.83;1751441;81;21544;-70
2021/09/25 08:51:04;;;;;;;4.15;1.47;;;;;;;17.42;83.94;98978.09;1741704;81;21535;-70
2021/09/25 08:53:31;;;;;;;5.83;2.42;;;;;;;17.40;84.39;98982.69;1735790;81;21053;-70
2021/09/25 08:55:58;;;;;;;6.17;1.80;;;;;;;17.42;82.73;98980.73;1736356;81;21481;-70
2021/09/25 08:58:24;;;;;;;4.65;1.90;;;;;;;17.50;84.16;98991.94;1754186;80;20981;-70
2021/09/25 09:00:54;;;;;;;6.60;1.92;;;;;;;17.79;84.27;98998.66;1741813;81;20894;-70
2021/09/25 09:03:31;;;;;;;4.65;1.67;;;;;;;18.01;83.92;98990.50;1732071;81;20993;-70
2021/09/25 09:06:07;;;;;;;;;;;;;;;18.21;83.70;98987.87;1759939;80;21962;-70
2021/09/25 09:08:34;;;;;;;6.50;2.08;;;;;;;18.36;82.79;98991.74;1765197;80;20515;-69
2021/09/25 09:11:02;;;;;;;;;;;;;;;18.39;82.86;98999.39;1755447;79;20927;-70
2021/09/25 09:13:29;;;;;;;5.30;1.40;;;;;;;18.20;81.23;98988.82;1751450;79;20244;-70
2021/09/25 09:15:55;;;;;;;;;;;;;;;18.13;81.98;99002.25;1722148;81;20951;-70
2021/09/25 09:18:23;;;;;;;5.60;1.85;;;;;;;17.91;81.03;98990.95;1743584;79;21115;-69
2021/09/25 09:21:05;;;;;;;7.42;2.17;;;;;;;17.60;80.79;98981.77;1749322;79;21989;-68
2021/09/25 09:23:41;;;;;;;6.58;1.82;;;;;;;17.30;80.75;98995.00;1731662;81;21042;-70
2021/09/25 09:26:08;;;;;;;3.83;1.50;;;;;;;17.12;81.11;98995.63;1757019;80;21503;-70
2021/09/25 09:28:38;;;;;;;4.30;1.95;;;;;;;17.18;80.74;99000.86;1759773;80;21036;-70
2021/09/25 09:31:08;;;;;;;4.33;1.90;;;;;;;17.26;80.94;99006.80;1752659;80;21032;-71
2021/09/25 09:33:45;;;;;;;6.10;1.92;;;;;;;17.23;80.63;99008.73;1760744;80;20997;-70
2021/09/25 09:36:34;;;;;;;5.05;2.02;;;;;;;17.33;81.08;99010.56;1762010;80;21521;-70
2021/09/25 09:39:15;;;;;;;7.53;2.25;;;;;;;17.48;80.92;99005.78;1764315;80;21040;-70
2021/09/25 09:41:46;;;;;;;7.87;2.05;;;;;;;17.54;80.45;99011.34;1755865;80;20966;-71
2021/09/25 09:44:23;;;;;;;6.42;2.15;;;;;;;17.50;79.40;99012.56;1721932;81;21010;-71
2021/09/25 09:46:59;;;;;;;4.72;1.90;;;;;;;17.34;79.81;99006.98;1736815;81;21551;-70
2021/09/25 09:49:30;;;;;;;4.40;1.92;;;;;;;17.19;79.72;99028.41;1713536;81;21148;-70
2021/09/25 09:52:14;;;;;;;10.35;2.15;;;;;;;17.08;79.37;99023.22;1720344;82;21045;-71
2021/09/25 09:54:44;;;;;;;5.67;2.15;;;;;;;16.89;79.53;99033.68;1721260;81;20887;-70
2021/09/25 09:57:18;;;;;;;7.33;2.30;;;;;;;16.95;79.97;99037.11;1746191;81;21522;-70
2021/09/25 09:59:48;;;;;;;7.50;1.77;;;;;;;17.14;80.13;99050.41;1725170;81;21049;-71
2021/09/25 10:02:15;;;;;;;5.60;2.12;;;;;;;17.18;78.95;99053.12;1728720;81;21011;-71
2021/09/25 10:04:42;;;;;;;7.12;2.15;;;;;;;17.23;78.52;99048.30;1738639;81;20994;-71
2021/09/25 10:07:09;;;;;;;18.37;2.22;;;;;;;17.29;78.72;99051.38;1739490;81;21025;-70
2021/09/25 10:09:37;;;;;;;;;;;;;;;17.17;76.32;99063.83;1732447;81;21064;-70
2021/09/25 10:12:13;;;;;;;5.67;1.57;;;;;;;17.01;77.52;99056.37;1710793;81;20168;-70
2021/09/25 10:14:43;;;;;;;14.95;1.62;;;;;;;17.10;77.74;99058.22;1722732;81;20985;-70
2021/09/25 10:17:13;;;;;;;6.22;2.15;;;;;;;17.27;78.04;99062.05;1717731;82;21121;-70
2021/09/25 10:19:43;;;;;;;4.20;1.77;;;;;;;17.30;77.02;99068.88;1721738;81;20982;-70
2021/09/25 10:22:19;;;;;;;5.50;2.12;;;;;;;17.31;77.09;99079.77;1720965;81;21913;-69
2021/09/25 10:24:54;;;;;;;4.10;1.50;;;;;;;17.33;75.88;99085.77;1718659;81;21610;-69
2021/09/25 10:27:23;;;;;;;7.30;2.08;;;;;;;17.39;75.34;99086.55;1730092;81;20943;-70
2021/09/25 10:29:52;;;;;;;7.22;2.47;;;;;;;17.55;75.69;99073.71;1715093;81;21115;-68
2021/09/25 10:32:29;;;;;;;5.70;1.90;;;;;;;17.68;76.56;99059.80;1744395;81;20975;-68
2021/09/25 10:35:10;;;;;;;7.35;1.77;;;;;;;17.86;76.63;99068.44;1729481;81;21126;-68
2021/09/25 10:37:50;;;;;;;5.75;2.02;;;;;;;17.77;75.18;99086.37;1681417;84;21520;-68
2021/09/25 10:40:24;;;;;;;8.85;1.90;;;;;;;17.61;75.53;99092.97;1707069;83;20982;-68
2021/09/25 10:42:59;;;;;;;7.05;2.85;;;;;;;17.28;73.99;99108.59;1706057;83;21013;-68
2021/09/25 10:45:38;;;;;;;8.03;2.40;;;;;;;16.92;73.94;99113.84;1705868;83;21121;-68
2021/09/25 10:48:21;;;;;;;5.67;1.45;;;;;;;16.63;74.59;99105.17;1702676;83;21960;-67
2021/09/25 10:51:01;;;;;;;5.10;1.60;;;;;;;16.46;74.97;99105.72;1703730;83;21118;-67
2021/09/25 10:53:33;;;;;;;5.08;1.70;;;;;;;16.42;74.68;99117.48;1703887;83;21066;-67
2021/09/25 10:56:04;;;;;;;5.10;1.80;;;;;;;16.24;74.68;99123.25;1699306;83;21086;-68
2021/09/25 10:58:37;;;;;;;10.93;1.90;;;;;;;16.06;74.46;99122.09;1706127;82;21181;-67
2021/09/25 11:01:15;;;;;;;4.40;1.60;;;;;;;16.07;74.88;99119.33;1707532;82;21586;-67
2021/09/25 11:03:58;;;;;;;4.87;1.62;;;;;;;16.08;74.71;99122.34;1697901;82;21014;-69
2021/09/25 11:06:40;;;;;;;4.97;2.00;;;;;;;16.20;75.12;99144.22;1702122;82;21534;-69
2021/09/25 11:09:36;;;;;;;5.28;1.70;;;;;;;16.16;74.60;99140.63;1701470;83;21541;-70
2021/09/25 11:12:13;;;;;;;4.70;1.87;;;;;;;16.17;74.35;99137.89;1701441;82;21002;-71
2021/09/25 11:14:46;;;;;;;5.37;1.70;;;;;;;16.22;74.22;99139.67;1710324;81;21606;-69
2021/09/25 11:17:28;;;;;;;8.45;1.85;;;;;;;16.18;74.18;99148.77;1739781;81;21270;-71
2021/09/25 11:19:58;;;;;;;4.35;1.50;;;;;;;16.18;74.39;99144.81;1740333;81;21002;-68
2021/09/25 11:22:38;;;;;;;4.85;1.90;;;;;;;16.18;74.48;99154.52;1743589;81;20978;-70
2021/09/25 11:25:12;;;;;;;7.03;1.80;;;;;;;16.12;74.28;99142.67;1734958;81;21025;-69
2021/09/25 11:27:46;;;;;;;6.85;1.98;;;;;;;16.22;74.66;99143.62;1731304;81;21058;-71
2021/09/25 11:30:26;;;;;;;6.20;1.87;;;;;;;16.45;75.02;99149.67;1747521;81;21581;-70
2021/09/25 11:32:59;;;;;;;5.40;1.70;;;;;;;16.66;74.60;99154.99;1746129;81;20940;-72
2021/09/25 11:35:34;;;;;;;8.20;1.82;;;;;;;16.74;73.60;99157.84;1742811;81;21629;-71
2021/09/25 11:38:09;;;;;;;4.58;2.02;;;;;;;16.63;73.48;99147.34;1735604;81;21042;-71
2021/09/25 11:40:40;;;;;;;6.22;1.85;;;;;;;16.65;73.59;99159.09;1739357;81;21918;-70